Andong, South Korea

10:46 PM KST on September 01, 2014 (GMT +0900)
Daegu | Change Station
CLOSE
Current Station
Airport
Location: Daegu AB,
Elevation: 115 ft
Nearby Weather Stations

Elev 115 ft 35.89 °N, 128.66 °E | Updated 46 minutes ago

Scattered Clouds
Scattered Clouds
70 °F
Feels Like 70 °F
N
7
Wind Variable Wind from SE

Today
High -- | Low -- °F
--% Chance of Precip.
Yesterday
High -- | Low -- °F
Precip. -- in
5:55 AM 6:54 PM
Waxing Crescent, 41% visible
Pressure 29.98 in
Visibility 6.2 miles
Clouds Few 4000 ft
Scattered Clouds 20000 ft
Dew Point 64 °F
Humidity 83%
Rainfall 0.00 in
Snow Depth Not available.
UV 0 out of 12
Pollen Not available.
Air Quality Not available.
Flu Activity Not available.
METAR RKTN 011300Z 14006KT 9999 FEW040 SCT200 21/18 Q1015 NOSIG

More Conditions Fewer Conditions

Pressure 29.98 in
Visibility 6.2 miles
Clouds Few 4000 ft
Scattered Clouds 20000 ft
Dew Point 64 °F
Humidity 83%
Rainfall 0.00 in
Snow Depth Not available.
UV 0 out of 12
Pollen Not available.
Air Quality Not available.
Flu Activity Not available.
METAR RKTN 011300Z 14006KT 9999 FEW040 SCT200 21/18 Q1015 NOSIG

More Conditions Fewer Conditions

10-Day Weather Forecast

Almanac

Astronomy

Sep. 01, 2014 Rise Set
Actual Time 5:55 AM KST 6:54 PM KST
Civil Twilight 5:29 AM KST 7:20 PM KST
Nautical Twilight 4:58 AM KST 7:51 PM KST
Astronomical Twilight 4:25 AM KST 8:23 PM KST
Moon 11:55 AM KST 10:37 PM KST
Length of Visible Light 13h 50m
Length of Day
12h 58m
Tomorrow will be 2m 13s shorter.
Waxing Crescent, 41% of the Moon is Illuminated
Today
Waxing Crescent
Sep 2
First Quarter
Sep 8
Full
Sep 15
Last Quarter
Sep 24
New

Yesterday's Extremes

Country Highs Country Lows

Community

WunderPhotos

Upload Photos

1,749,222 photos uploaded!

Nearby

Snow Depth

Not available.

Earthquake Activity

City Distance Mag. Time & Date
No recent earthquake activity has been reported nearby.
Minimum magnitude displayed is 2.5.

Coastal Water Temperatures

Place Temperature
No Stations Reporting

Nearby Weather Stations